createdAt,value
2023-04-28T00:00:12.158Z,70.83
2023-04-28T00:01:05.466Z,70.81
2023-04-28T00:01:38.602Z,70.81
2023-04-28T00:02:11.774Z,70.81
2023-04-28T00:02:46.159Z,70.81
2023-04-28T00:03:19.499Z,70.80
2023-04-28T00:03:53.635Z,70.82
2023-04-28T00:04:27.425Z,70.92
2023-04-28T00:05:01.348Z,70.99
2023-04-28T00:05:34.564Z,71.04
2023-04-28T00:06:07.947Z,71.09
2023-04-28T00:06:41.343Z,71.13
2023-04-28T00:07:14.513Z,71.12
2023-04-28T00:07:48.033Z,71.08
2023-04-28T00:08:23.709Z,71.01
2023-04-28T00:08:57.079Z,70.95
2023-04-28T00:09:30.613Z,70.90
2023-04-28T00:10:04.018Z,70.87
2023-04-28T00:10:37.373Z,70.87
2023-04-28T00:11:11.386Z,70.91
2023-04-28T00:11:45.166Z,70.91
2023-04-28T00:12:18.507Z,70.88
2023-04-28T00:12:51.662Z,70.84
2023-04-28T00:13:24.827Z,70.83
2023-04-28T00:13:58.076Z,70.81
2023-04-28T00:14:31.281Z,70.79
2023-04-28T00:15:04.942Z,70.78
2023-04-28T00:15:38.358Z,70.77
2023-04-28T00:16:11.596Z,70.76
2023-04-28T00:16:45.011Z,70.74
2023-04-28T00:17:18.423Z,70.71
2023-04-28T00:17:52.030Z,70.69
2023-04-28T00:18:25.385Z,70.68
2023-04-28T00:18:58.662Z,70.69
2023-04-28T00:19:31.997Z,70.72
2023-04-28T00:20:05.764Z,70.74
2023-04-28T00:20:39.055Z,70.76
2023-04-28T00:21:12.085Z,70.81
2023-04-28T00:21:45.373Z,70.86
2023-04-28T00:22:18.884Z,70.89
2023-04-28T00:22:52.137Z,70.93
2023-04-28T00:23:25.207Z,70.92
2023-04-28T00:23:58.482Z,70.93
2023-04-28T00:24:32.892Z,70.89
2023-04-28T00:25:06.757Z,70.89
2023-04-28T00:25:39.987Z,70.92
2023-04-28T00:26:13.056Z,70.92
2023-04-28T00:26:46.337Z,70.93
2023-04-28T00:27:20.796Z,70.93
2023-04-28T00:27:54.153Z,70.92
2023-04-28T00:28:34.158Z,70.94
2023-04-28T00:29:08.011Z,70.92
2023-04-28T00:29:41.431Z,70.93
2023-04-28T00:30:14.856Z,70.90
2023-04-28T00:30:48.229Z,70.88
2023-04-28T00:31:21.459Z,70.85
2023-04-28T00:31:54.585Z,70.84
2023-04-28T00:32:27.882Z,70.82
2023-04-28T00:33:01.122Z,70.80
2023-04-28T00:33:34.598Z,70.79
2023-04-28T00:34:07.658Z,70.79
2023-04-28T00:34:40.859Z,70.81
2023-04-28T00:35:13.941Z,70.81
2023-04-28T00:35:46.934Z,70.83
2023-04-28T00:36:19.991Z,70.84
2023-04-28T00:36:53.282Z,70.85
2023-04-28T00:37:26.356Z,70.86
2023-04-28T00:37:59.907Z,70.88
2023-04-28T00:38:33.137Z,70.89
2023-04-28T00:39:06.622Z,70.90
2023-04-28T00:39:41.807Z,70.90
2023-04-28T00:40:15.182Z,70.91
2023-04-28T00:40:48.337Z,70.87
2023-04-28T00:41:21.633Z,70.81
2023-04-28T00:41:54.839Z,70.77
2023-04-28T00:42:27.955Z,70.74
2023-04-28T00:43:01.266Z,70.71
2023-04-28T00:43:43.960Z,70.70
2023-04-28T00:44:17.554Z,70.66
2023-04-28T00:44:51.022Z,70.65
2023-04-28T00:45:24.209Z,70.63
2023-04-28T00:45:57.459Z,70.64
2023-04-28T00:46:32.370Z,70.68
2023-04-28T00:47:05.872Z,70.72
2023-04-28T00:47:39.160Z,70.73
2023-04-28T00:48:14.007Z,70.72
2023-04-28T00:48:47.430Z,70.73
2023-04-28T00:49:20.648Z,70.72
2023-04-28T00:49:54.260Z,70.71
2023-04-28T00:50:27.418Z,70.68
2023-04-28T00:51:00.657Z,70.67
2023-04-28T00:51:34.032Z,70.63
2023-04-28T00:52:07.520Z,70.58
2023-04-28T00:52:40.852Z,70.54
2023-04-28T00:53:14.153Z,70.49
2023-04-28T00:53:47.895Z,70.45
2023-04-28T00:54:21.302Z,70.41
2023-04-28T00:54:55.138Z,70.38
2023-04-28T00:55:30.457Z,70.35
2023-04-28T00:56:03.884Z,70.33
2023-04-28T00:56:37.172Z,70.32
2023-04-28T00:57:10.864Z,70.32
2023-04-28T00:57:44.050Z,70.32
2023-04-28T00:58:17.240Z,70.33
2023-04-28T00:58:50.385Z,70.34
2023-04-28T00:59:23.352Z,70.36
2023-04-28T00:59:56.603Z,70.40
2023-04-28T01:00:29.848Z,70.43
2023-04-28T01:01:06.312Z,70.46
2023-04-28T01:01:39.684Z,70.46
2023-04-28T01:02:18.517Z,70.48
2023-04-28T01:02:52.867Z,70.49
2023-04-28T01:03:26.237Z,70.49
2023-04-28T01:03:59.699Z,70.51
2023-04-28T01:04:33.969Z,70.51
2023-04-28T01:05:09.036Z,70.50
2023-04-28T01:05:42.156Z,70.50
2023-04-28T01:06:16.738Z,70.51
2023-04-28T01:06:51.714Z,70.49
2023-04-28T01:07:24.936Z,70.48
2023-04-28T01:07:58.177Z,70.46
2023-04-28T01:08:31.807Z,70.46
2023-04-28T01:09:06.556Z,70.46
2023-04-28T01:09:39.750Z,70.45
2023-04-28T01:10:12.901Z,70.42
2023-04-28T01:10:46.001Z,70.38
2023-04-28T01:11:19.249Z,70.36
2023-04-28T01:11:52.636Z,70.36
2023-04-28T01:12:25.974Z,70.38
2023-04-28T01:12:59.145Z,70.39
2023-04-28T01:13:32.593Z,70.40
2023-04-28T01:14:05.899Z,70.42
2023-04-28T01:14:39.376Z,70.43
2023-04-28T01:15:19.208Z,70.42
2023-04-28T01:15:52.706Z,70.41
2023-04-28T01:16:27.201Z,70.40
2023-04-28T01:17:00.554Z,70.40
2023-04-28T01:17:34.012Z,70.39
2023-04-28T01:18:07.387Z,70.38
2023-04-28T01:18:45.740Z,70.36
2023-04-28T01:19:22.541Z,70.31
2023-04-28T01:19:56.123Z,70.29
2023-04-28T01:20:29.294Z,70.28
2023-04-28T01:21:04.525Z,70.26
2023-04-28T01:21:37.734Z,70.25
2023-04-28T01:22:14.293Z,70.26
2023-04-28T01:22:47.531Z,70.26
2023-04-28T01:23:20.966Z,70.25
2023-04-28T01:23:54.042Z,70.26
2023-04-28T01:24:27.146Z,70.24
2023-04-28T01:25:00.586Z,70.22
2023-04-28T01:25:33.843Z,70.19
2023-04-28T01:26:07.007Z,70.16
2023-04-28T01:26:40.206Z,70.16
2023-04-28T01:27:13.418Z,70.13
2023-04-28T01:27:46.710Z,70.12
2023-04-28T01:28:19.822Z,70.09
2023-04-28T01:28:53.358Z,70.10
2023-04-28T01:29:26.746Z,70.08
2023-04-28T01:29:59.955Z,70.08
2023-04-28T01:30:33.084Z,70.07
2023-04-28T01:31:06.116Z,70.07
2023-04-28T01:31:39.294Z,70.07
2023-04-28T01:32:12.539Z,70.08
2023-04-28T01:32:45.769Z,70.09
2023-04-28T01:33:18.914Z,70.09
2023-04-28T01:33:52.133Z,70.12
2023-04-28T01:34:25.330Z,70.12
2023-04-28T01:34:58.535Z,70.14
2023-04-28T01:35:31.912Z,70.17
2023-04-28T01:36:05.328Z,70.19
2023-04-28T01:36:38.710Z,70.22
2023-04-28T01:37:12.191Z,70.27
2023-04-28T01:37:45.552Z,70.28
2023-04-28T01:38:18.648Z,70.29
2023-04-28T01:38:51.879Z,70.29
2023-04-28T01:39:25.075Z,70.28
2023-04-28T01:39:58.115Z,70.28
2023-04-28T01:40:32.001Z,70.20
2023-04-28T01:41:05.204Z,70.20
2023-04-28T01:41:38.233Z,70.20
2023-04-28T01:42:11.460Z,70.20
2023-04-28T01:42:44.564Z,70.21
2023-04-28T01:43:17.752Z,70.21
2023-04-28T01:43:50.989Z,70.19
2023-04-28T01:44:24.205Z,70.20
2023-04-28T01:44:57.345Z,70.20
2023-04-28T01:45:30.627Z,70.19
2023-04-28T01:46:03.837Z,70.17
2023-04-28T01:46:37.212Z,70.18
2023-04-28T01:47:10.310Z,70.18
2023-04-28T01:47:43.305Z,70.15
2023-04-28T01:48:16.504Z,70.15
2023-04-28T01:48:49.574Z,70.17
2023-04-28T01:49:22.666Z,70.19
2023-04-28T01:49:56.000Z,70.21
2023-04-28T01:50:28.987Z,70.25
2023-04-28T01:51:02.208Z,70.29
2023-04-28T01:51:35.177Z,70.32
2023-04-28T01:52:08.235Z,70.36
2023-04-28T01:52:41.488Z,70.40
2023-04-28T01:53:14.812Z,70.44
2023-04-28T01:53:47.894Z,70.53
2023-04-28T01:54:21.005Z,70.61
2023-04-28T01:54:54.445Z,70.66
2023-04-28T01:55:27.751Z,70.68
2023-04-28T01:56:01.606Z,70.71
2023-04-28T01:56:34.697Z,70.72
2023-04-28T01:57:08.012Z,70.71
2023-04-28T01:57:41.559Z,70.71
2023-04-28T01:58:14.781Z,70.71
2023-04-28T01:58:47.760Z,70.69
2023-04-28T01:59:21.164Z,70.68
2023-04-28T01:59:54.455Z,70.68
2023-04-28T02:00:27.639Z,70.66
2023-04-28T02:01:01.084Z,70.63
2023-04-28T02:01:34.309Z,70.61
2023-04-28T02:02:07.550Z,70.58
2023-04-28T02:02:41.228Z,70.56
2023-04-28T02:03:14.583Z,70.54
2023-04-28T02:03:49.349Z,70.52
2023-04-28T02:04:22.996Z,70.53
2023-04-28T02:04:58.746Z,70.54
2023-04-28T02:05:32.230Z,70.52
2023-04-28T02:06:05.583Z,70.51
2023-04-28T02:06:38.777Z,70.48
2023-04-28T02:07:11.962Z,70.50
2023-04-28T02:07:45.642Z,70.54
2023-04-28T02:08:19.027Z,70.56
2023-04-28T02:08:52.793Z,70.58
2023-04-28T02:09:26.354Z,70.61
2023-04-28T02:09:59.617Z,70.63
2023-04-28T02:10:33.152Z,70.56
2023-04-28T02:11:06.356Z,70.61
2023-04-28T02:11:39.573Z,70.66
2023-04-28T02:12:12.772Z,70.69
2023-04-28T02:12:46.016Z,70.72
2023-04-28T02:13:19.285Z,70.78
2023-04-28T02:13:52.549Z,70.79
2023-04-28T02:14:25.894Z,70.80
2023-04-28T02:14:59.465Z,70.81
2023-04-28T02:15:32.760Z,70.81
2023-04-28T02:16:06.262Z,70.80
2023-04-28T02:16:39.489Z,70.80
2023-04-28T02:17:12.728Z,70.82
2023-04-28T02:17:46.162Z,70.77
2023-04-28T02:18:19.424Z,70.79
2023-04-28T02:18:52.633Z,70.76
2023-04-28T02:19:25.912Z,70.77
2023-04-28T02:19:59.279Z,70.82
2023-04-28T02:20:33.417Z,70.82
2023-04-28T02:21:12.939Z,70.81
2023-04-28T02:21:46.169Z,70.83
2023-04-28T02:22:19.369Z,70.84
2023-04-28T02:22:52.479Z,70.85
2023-04-28T02:23:25.513Z,70.85
2023-04-28T02:23:58.980Z,70.86
2023-04-28T02:24:34.965Z,70.82
2023-04-28T02:25:08.575Z,70.82
2023-04-28T02:25:41.829Z,70.85
2023-04-28T02:26:15.382Z,70.86
2023-04-28T02:26:48.503Z,70.86
2023-04-28T02:27:21.848Z,70.86
2023-04-28T02:27:54.993Z,70.87
2023-04-28T02:28:28.531Z,70.85
2023-04-28T02:29:04.420Z,70.86
2023-04-28T02:29:37.669Z,70.88
2023-04-28T02:30:10.986Z,70.88
2023-04-28T02:30:44.400Z,70.88
2023-04-28T02:31:17.650Z,70.87
2023-04-28T02:31:50.875Z,70.86
2023-04-28T02:32:24.241Z,70.84
2023-04-28T02:32:57.510Z,70.83
2023-04-28T02:33:30.722Z,70.81
2023-04-28T02:34:03.760Z,70.79
2023-04-28T02:34:36.963Z,70.74
2023-04-28T02:35:10.272Z,70.71
2023-04-28T02:35:43.556Z,70.67
2023-04-28T02:36:17.116Z,70.61
2023-04-28T02:36:51.677Z,70.58
2023-04-28T02:37:24.764Z,70.55
2023-04-28T02:37:57.945Z,70.52
2023-04-28T02:38:31.451Z,70.49
2023-04-28T02:39:04.483Z,70.47
2023-04-28T02:39:37.925Z,70.47
2023-04-28T02:40:11.393Z,70.48
2023-04-28T02:40:44.598Z,70.47
2023-04-28T02:41:17.729Z,70.47
2023-04-28T02:41:50.884Z,70.46
2023-04-28T02:42:23.992Z,70.46
2023-04-28T02:42:57.154Z,70.41
2023-04-28T02:43:30.362Z,70.41
2023-04-28T02:44:03.629Z,70.48
2023-04-28T02:44:36.918Z,70.29
2023-04-28T02:45:10.387Z,70.30
2023-04-28T02:45:43.526Z,70.43
2023-04-28T02:46:16.789Z,70.44
2023-04-28T02:46:50.433Z,70.04
2023-04-28T02:47:23.498Z,70.25
2023-04-28T02:47:56.532Z,70.30
2023-04-28T02:48:29.843Z,69.75
2023-04-28T02:49:04.527Z,69.33
2023-04-28T02:49:37.847Z,69.26
2023-04-28T02:50:11.506Z,69.64
2023-04-28T02:50:46.347Z,69.68
2023-04-28T02:51:19.613Z,69.62
2023-04-28T02:51:52.804Z,69.70
2023-04-28T02:52:25.993Z,69.60
2023-04-28T02:52:59.210Z,69.66
2023-04-28T02:53:32.186Z,69.71
2023-04-28T02:54:05.334Z,69.83
2023-04-28T02:54:38.546Z,69.90
2023-04-28T02:55:11.913Z,69.99
2023-04-28T02:55:45.276Z,70.02
2023-04-28T02:56:18.349Z,70.08
2023-04-28T02:56:51.507Z,70.00
2023-04-28T02:57:24.777Z,69.90
2023-04-28T02:57:57.950Z,70.06
2023-04-28T02:58:31.267Z,70.14
2023-04-28T02:59:04.607Z,70.20
2023-04-28T02:59:37.611Z,70.23
2023-04-28T03:00:10.960Z,70.31
2023-04-28T03:00:44.312Z,70.28
2023-04-28T03:01:17.391Z,70.34
2023-04-28T03:01:52.067Z,70.36
2023-04-28T03:02:25.372Z,70.40
2023-04-28T03:02:58.826Z,70.46
2023-04-28T03:03:32.748Z,70.52
2023-04-28T03:04:06.663Z,70.58
2023-04-28T03:04:40.072Z,70.57
2023-04-28T03:05:13.066Z,70.61
2023-04-28T03:05:46.398Z,70.68
2023-04-28T03:06:19.654Z,70.68
2023-04-28T03:06:53.082Z,70.66
2023-04-28T03:07:26.356Z,70.65
2023-04-28T03:07:59.952Z,70.65
2023-04-28T03:08:33.299Z,70.67
2023-04-28T03:09:06.977Z,70.71
2023-04-28T03:09:42.148Z,70.69
2023-04-28T03:10:15.344Z,70.68
2023-04-28T03:10:48.563Z,70.74
2023-04-28T03:11:21.852Z,70.73
2023-04-28T03:11:55.170Z,70.72
2023-04-28T03:12:28.446Z,70.72
2023-04-28T03:13:01.559Z,70.46
2023-04-28T03:13:36.160Z,70.54
2023-04-28T03:14:09.351Z,70.64
2023-04-28T03:14:42.566Z,70.70
2023-04-28T03:15:15.692Z,70.82
2023-04-28T03:15:48.985Z,70.87
2023-04-28T03:16:22.087Z,70.91
2023-04-28T03:16:55.929Z,70.81
2023-04-28T03:17:29.085Z,70.92
2023-04-28T03:18:02.317Z,70.98
2023-04-28T03:18:35.747Z,71.07
2023-04-28T03:19:08.852Z,70.87
2023-04-28T03:19:42.176Z,70.86
2023-04-28T03:20:15.309Z,70.88
2023-04-28T03:20:48.563Z,70.94
2023-04-28T03:21:21.878Z,71.13
2023-04-28T03:21:55.061Z,70.97
2023-04-28T03:22:28.327Z,71.11
2023-04-28T03:23:02.830Z,71.22
2023-04-28T03:23:35.920Z,71.32
2023-04-28T03:24:09.108Z,71.38
2023-04-28T03:24:42.420Z,71.42
2023-04-28T03:25:15.634Z,71.43
2023-04-28T03:25:48.892Z,71.47
2023-04-28T03:26:22.511Z,71.48
2023-04-28T03:26:55.910Z,71.47
2023-04-28T03:27:29.084Z,71.47
2023-04-28T03:28:02.646Z,71.42
2023-04-28T03:28:35.867Z,71.45
2023-04-28T03:29:09.178Z,71.47
2023-04-28T03:29:42.351Z,71.51
2023-04-28T03:30:15.786Z,71.58
2023-04-28T03:30:48.810Z,71.59
2023-04-28T03:31:21.912Z,71.61
2023-04-28T03:31:55.117Z,71.57
2023-04-28T03:32:28.374Z,71.61
2023-04-28T03:33:01.473Z,71.63
2023-04-28T03:33:34.791Z,71.61
2023-04-28T03:34:08.005Z,71.56
2023-04-28T03:34:41.244Z,71.51
2023-04-28T03:35:14.481Z,71.45
2023-04-28T03:35:47.597Z,71.28
2023-04-28T03:36:20.742Z,71.24
2023-04-28T03:36:53.823Z,71.35
2023-04-28T03:37:27.463Z,71.40
2023-04-28T03:38:00.712Z,71.40
2023-04-28T03:38:33.876Z,71.47
2023-04-28T03:39:07.286Z,71.53
2023-04-28T03:39:40.675Z,71.56
2023-04-28T03:40:13.983Z,71.59
2023-04-28T03:40:47.141Z,71.62
2023-04-28T03:41:20.421Z,71.65
2023-04-28T03:41:53.976Z,71.62
2023-04-28T03:42:27.518Z,71.60
2023-04-28T03:43:03.934Z,71.49
2023-04-28T03:43:37.865Z,71.48
2023-04-28T03:44:11.066Z,71.45
2023-04-28T03:44:44.386Z,71.41
2023-04-28T03:45:17.519Z,71.33
2023-04-28T03:45:50.728Z,71.24
2023-04-28T03:46:24.247Z,71.17
2023-04-28T03:46:57.580Z,71.00
2023-04-28T03:47:30.728Z,70.80
2023-04-28T03:48:03.957Z,70.92
2023-04-28T03:48:37.200Z,70.99
2023-04-28T03:49:10.812Z,71.02
2023-04-28T03:49:44.182Z,71.11
2023-04-28T03:50:17.195Z,71.15
2023-04-28T03:50:50.352Z,71.19
2023-04-28T03:51:23.604Z,71.24
2023-04-28T03:51:56.936Z,71.28
2023-04-28T03:52:30.216Z,71.31
2023-04-28T03:53:03.459Z,71.34
2023-04-28T03:53:36.471Z,71.38
2023-04-28T03:54:09.489Z,71.44
2023-04-28T03:54:42.830Z,71.51
2023-04-28T03:55:16.170Z,71.50
2023-04-28T03:55:49.351Z,71.52
2023-04-28T03:56:22.661Z,71.60
2023-04-28T03:56:55.858Z,71.66
2023-04-28T03:57:29.006Z,71.71
2023-04-28T03:58:02.188Z,71.74
2023-04-28T03:58:35.631Z,71.76
2023-04-28T03:59:11.824Z,71.80
2023-04-28T03:59:45.079Z,71.80
2023-04-28T04:00:18.429Z,71.83
2023-04-28T04:00:51.647Z,71.82
2023-04-28T04:01:26.230Z,71.84
2023-04-28T04:01:59.533Z,71.80
2023-04-28T04:02:32.902Z,71.82
2023-04-28T04:03:06.282Z,71.83
2023-04-28T04:03:40.157Z,71.85
2023-04-28T04:04:13.966Z,71.84
2023-04-28T04:04:47.596Z,71.84
2023-04-28T04:05:21.004Z,71.85
2023-04-28T04:05:55.369Z,71.87
2023-04-28T04:06:28.599Z,71.90
2023-04-28T04:07:02.590Z,71.92
2023-04-28T04:07:35.955Z,71.95
2023-04-28T04:08:09.572Z,71.96
2023-04-28T04:08:42.888Z,71.98
2023-04-28T04:09:16.227Z,72.00
2023-04-28T04:09:49.471Z,71.99
2023-04-28T04:10:22.615Z,71.98
2023-04-28T04:10:56.156Z,71.94
2023-04-28T04:11:29.341Z,71.95
2023-04-28T04:12:02.564Z,71.95
2023-04-28T04:12:35.763Z,71.95
2023-04-28T04:13:08.863Z,71.96
2023-04-28T04:13:41.899Z,71.94
2023-04-28T04:14:15.292Z,71.92
2023-04-28T04:14:48.961Z,71.92
2023-04-28T04:15:22.194Z,71.93
2023-04-28T04:15:55.458Z,71.95
2023-04-28T04:16:29.596Z,71.98
2023-04-28T04:17:02.709Z,72.04
2023-04-28T04:17:35.744Z,72.04
2023-04-28T04:18:09.006Z,72.04
2023-04-28T04:18:42.277Z,72.09
2023-04-28T04:19:15.501Z,72.14
2023-04-28T04:19:48.676Z,72.19
2023-04-28T04:20:21.896Z,72.28
2023-04-28T04:20:56.212Z,72.12
2023-04-28T04:21:29.641Z,72.12
2023-04-28T04:22:02.950Z,72.21
2023-04-28T04:22:36.672Z,72.29
2023-04-28T04:23:09.819Z,72.33
2023-04-28T04:23:42.930Z,72.40
2023-04-28T04:24:16.504Z,72.36
2023-04-28T04:24:49.902Z,72.37
2023-04-28T04:25:23.548Z,72.43
2023-04-28T04:25:56.691Z,72.47
2023-04-28T04:26:29.931Z,72.52
2023-04-28T04:27:03.165Z,72.54
2023-04-28T04:27:36.429Z,72.57
2023-04-28T04:28:09.679Z,72.60
2023-04-28T04:28:42.932Z,72.65
2023-04-28T04:29:16.195Z,72.62
2023-04-28T04:29:49.334Z,72.61
2023-04-28T04:30:22.480Z,72.65
2023-04-28T04:30:55.714Z,72.69
2023-04-28T04:31:29.078Z,72.67
2023-04-28T04:32:02.377Z,72.69
2023-04-28T04:32:35.741Z,72.70
2023-04-28T04:33:09.204Z,72.72
2023-04-28T04:33:43.193Z,72.72
2023-04-28T04:34:16.733Z,72.63
2023-04-28T04:34:50.105Z,72.70
2023-04-28T04:35:23.391Z,72.76
2023-04-28T04:35:56.965Z,72.82
2023-04-28T04:36:30.757Z,72.79
2023-04-28T04:37:04.165Z,72.78
2023-04-28T04:37:37.387Z,72.77
2023-04-28T04:38:10.902Z,72.78
2023-04-28T04:38:44.276Z,72.82
2023-04-28T04:39:17.541Z,72.82
2023-04-28T04:39:50.712Z,72.74
2023-04-28T04:40:24.074Z,72.80
2023-04-28T04:40:57.588Z,72.85
2023-04-28T04:41:30.680Z,72.88
2023-04-28T04:42:16.750Z,72.92
2023-04-28T04:42:56.886Z,72.94
2023-04-28T04:43:30.272Z,72.99
2023-04-28T04:44:04.734Z,73.05
2023-04-28T04:44:37.922Z,73.04
2023-04-28T04:45:11.210Z,73.05
2023-04-28T04:45:44.866Z,73.06
2023-04-28T04:46:18.187Z,73.06
2023-04-28T04:46:52.468Z,73.07
2023-04-28T04:47:25.814Z,73.05
2023-04-28T04:47:59.160Z,73.04
2023-04-28T04:48:32.434Z,73.01
2023-04-28T04:49:05.500Z,72.98
2023-04-28T04:49:39.282Z,72.96
2023-04-28T04:50:12.671Z,72.97
2023-04-28T04:50:45.823Z,72.89
2023-04-28T04:51:19.552Z,72.87
2023-04-28T04:51:53.078Z,72.89
2023-04-28T04:52:26.453Z,72.89
2023-04-28T04:52:59.759Z,72.85
2023-04-28T04:53:32.748Z,72.77
2023-04-28T04:54:05.961Z,72.75
2023-04-28T04:54:39.184Z,72.67
2023-04-28T04:55:12.557Z,72.65
2023-04-28T04:55:45.983Z,72.65
2023-04-28T04:56:19.320Z,72.59
2023-04-28T04:56:52.752Z,72.45
2023-04-28T04:57:26.108Z,72.38
2023-04-28T04:57:59.553Z,72.36
2023-04-28T04:58:33.087Z,72.32
2023-04-28T04:59:06.738Z,72.37
2023-04-28T04:59:39.897Z,72.33
2023-04-28T05:00:13.549Z,71.89
2023-04-28T05:00:46.736Z,72.03
2023-04-28T05:01:20.228Z,72.24
2023-04-28T05:01:53.582Z,72.39
2023-04-28T05:02:26.875Z,72.39
2023-04-28T05:03:00.453Z,72.40
2023-04-28T05:03:33.951Z,72.22
2023-04-28T05:04:07.581Z,72.16
2023-04-28T05:04:41.462Z,72.24
2023-04-28T05:05:21.093Z,72.19
2023-04-28T05:05:55.851Z,72.18
2023-04-28T05:06:29.444Z,72.23
2023-04-28T05:07:03.535Z,72.26
2023-04-28T05:07:37.121Z,72.18
2023-04-28T05:08:10.436Z,71.48
2023-04-28T05:08:43.656Z,71.87
2023-04-28T05:09:17.364Z,72.14
2023-04-28T05:09:50.699Z,72.20
2023-04-28T05:10:24.907Z,71.88
2023-04-28T05:10:58.155Z,71.95
2023-04-28T05:11:31.195Z,71.05
2023-04-28T05:12:04.560Z,70.04
2023-04-28T05:12:40.591Z,69.76
2023-04-28T05:13:13.783Z,69.38
2023-04-28T05:13:46.947Z,69.33
2023-04-28T05:14:20.157Z,69.12
2023-04-28T05:14:53.357Z,69.83
2023-04-28T05:15:26.591Z,70.21
2023-04-28T05:16:00.158Z,69.62
2023-04-28T05:16:33.579Z,69.31
2023-04-28T05:17:06.896Z,69.60
2023-04-28T05:17:40.010Z,69.03
2023-04-28T05:18:14.396Z,69.04
2023-04-28T05:18:47.824Z,68.63
2023-04-28T05:19:21.267Z,68.10
2023-04-28T05:19:54.479Z,68.23
2023-04-28T05:20:27.707Z,67.88
2023-04-28T05:21:01.911Z,67.74
2023-04-28T05:21:35.232Z,67.72
2023-04-28T05:22:08.547Z,67.86
2023-04-28T05:22:42.063Z,68.10
2023-04-28T05:23:15.360Z,68.32
2023-04-28T05:23:48.619Z,68.50
2023-04-28T05:24:23.919Z,68.62
2023-04-28T05:24:57.323Z,68.75
2023-04-28T05:25:30.819Z,68.84
2023-04-28T05:26:04.582Z,68.83
2023-04-28T05:26:37.769Z,68.93
2023-04-28T05:27:11.105Z,69.06
2023-04-28T05:27:44.421Z,69.13
2023-04-28T05:28:18.001Z,69.21
2023-04-28T05:28:52.694Z,69.17
2023-04-28T05:29:26.180Z,69.15
2023-04-28T05:30:00.242Z,69.15
2023-04-28T05:30:33.807Z,69.16
2023-04-28T05:31:06.875Z,69.24
2023-04-28T05:31:40.191Z,69.34
2023-04-28T05:32:13.533Z,69.40
2023-04-28T05:32:47.019Z,69.43
2023-04-28T05:33:20.325Z,69.47
2023-04-28T05:33:53.595Z,69.47
2023-04-28T05:34:26.924Z,69.48
2023-04-28T05:35:00.163Z,69.19
2023-04-28T05:35:33.487Z,69.19
2023-04-28T05:36:06.776Z,69.24
2023-04-28T05:36:40.050Z,69.27
2023-04-28T05:37:13.163Z,69.22
2023-04-28T05:37:46.341Z,69.16
2023-04-28T05:38:20.575Z,69.15
2023-04-28T05:38:55.278Z,69.15
2023-04-28T05:39:28.495Z,69.14
2023-04-28T05:40:01.625Z,69.09
2023-04-28T05:40:34.799Z,68.99
2023-04-28T05:41:08.006Z,68.69
2023-04-28T05:41:41.205Z,68.63
2023-04-28T05:42:14.166Z,68.46
2023-04-28T05:42:47.354Z,68.41
2023-04-28T05:43:20.544Z,68.37
2023-04-28T05:43:53.762Z,68.38
2023-04-28T05:44:27.112Z,68.44
2023-04-28T05:45:00.359Z,68.41
2023-04-28T05:45:33.696Z,68.40
2023-04-28T05:46:14.889Z,68.37
2023-04-28T05:46:55.735Z,68.37
2023-04-28T05:47:29.701Z,68.31
2023-04-28T05:48:03.145Z,68.10
2023-04-28T05:48:36.718Z,67.99
2023-04-28T05:49:10.430Z,68.00
2023-04-28T05:49:43.641Z,68.08
2023-04-28T05:50:17.073Z,68.09
2023-04-28T05:50:50.293Z,68.09
2023-04-28T05:51:23.423Z,68.08
2023-04-28T05:51:56.497Z,68.09
2023-04-28T05:52:29.606Z,68.08
2023-04-28T05:53:03.163Z,68.07
2023-04-28T05:53:36.307Z,68.07
2023-04-28T05:54:09.504Z,68.06
2023-04-28T05:54:42.705Z,68.01
2023-04-28T05:55:15.954Z,67.94
2023-04-28T05:55:49.138Z,68.00
2023-04-28T05:56:22.326Z,68.02
2023-04-28T05:56:55.951Z,68.05
2023-04-28T05:57:30.539Z,68.09
2023-04-28T05:58:07.046Z,68.12
2023-04-28T05:58:40.637Z,68.12
2023-04-28T05:59:13.714Z,68.10
2023-04-28T05:59:47.250Z,68.05
2023-04-28T06:00:20.622Z,67.92
2023-04-28T06:00:55.085Z,67.72
2023-04-28T06:01:28.344Z,67.78
2023-04-28T06:02:01.656Z,67.82
2023-04-28T06:02:35.113Z,67.85
2023-04-28T06:03:11.479Z,67.77
2023-04-28T06:03:45.593Z,67.46
2023-04-28T06:04:19.324Z,67.27
2023-04-28T06:04:53.393Z,67.29
2023-04-28T06:05:26.848Z,67.23
2023-04-28T06:06:00.428Z,67.28
2023-04-28T06:06:34.363Z,67.29
2023-04-28T06:07:08.415Z,67.26
2023-04-28T06:07:41.865Z,67.21
2023-04-28T06:08:15.112Z,67.17
2023-04-28T06:08:48.378Z,66.85
2023-04-28T06:09:21.711Z,66.81
2023-04-28T06:09:54.686Z,66.47
2023-04-28T06:10:28.123Z,66.19
2023-04-28T06:11:01.517Z,65.99
2023-04-28T06:11:34.944Z,66.10
2023-04-28T06:12:08.209Z,65.81
2023-04-28T06:12:41.413Z,65.71
2023-04-28T06:13:14.863Z,65.72
2023-04-28T06:13:49.360Z,65.59
2023-04-28T06:14:23.317Z,65.85
2023-04-28T06:14:56.811Z,65.97
2023-04-28T06:15:30.433Z,66.07
2023-04-28T06:16:03.889Z,66.13
2023-04-28T06:16:37.098Z,66.15
2023-04-28T06:17:10.406Z,66.14
2023-04-28T06:17:43.489Z,66.06
2023-04-28T06:18:16.691Z,65.88
2023-04-28T06:18:49.965Z,65.84
2023-04-28T06:19:23.140Z,66.00
2023-04-28T06:19:57.108Z,66.05
2023-04-28T06:20:30.411Z,66.06
2023-04-28T06:21:04.091Z,66.06
2023-04-28T06:21:37.410Z,66.03
2023-04-28T06:22:10.696Z,66.02
2023-04-28T06:22:44.198Z,66.03
2023-04-28T06:23:17.324Z,66.02
2023-04-28T06:23:50.733Z,65.98
2023-04-28T06:24:24.015Z,65.95
2023-04-28T06:24:57.218Z,65.93
2023-04-28T06:25:30.490Z,65.94
2023-04-28T06:26:03.579Z,65.94
2023-04-28T06:26:36.844Z,65.93
2023-04-28T06:27:10.001Z,65.89
2023-04-28T06:27:43.486Z,65.34
2023-04-28T06:28:16.739Z,65.21
2023-04-28T06:28:50.012Z,65.41
2023-04-28T06:29:24.469Z,65.57
2023-04-28T06:29:57.714Z,65.39
2023-04-28T06:30:31.855Z,65.19
2023-04-28T06:31:05.207Z,65.42
2023-04-28T06:31:38.477Z,65.56
2023-04-28T06:32:11.815Z,65.62
2023-04-28T06:32:45.111Z,65.64
2023-04-28T06:33:18.278Z,65.62
2023-04-28T06:33:51.897Z,65.54
2023-04-28T06:34:27.741Z,65.24
2023-04-28T06:35:00.944Z,65.13
2023-04-28T06:35:39.022Z,65.28
2023-04-28T06:36:16.988Z,65.38
2023-04-28T06:36:50.184Z,65.48
2023-04-28T06:37:23.493Z,65.42
2023-04-28T06:37:56.912Z,65.18
2023-04-28T06:38:30.752Z,65.16
2023-04-28T06:39:03.765Z,65.17
2023-04-28T06:39:37.138Z,65.32
2023-04-28T06:40:10.751Z,65.29
2023-04-28T06:40:45.828Z,65.27
2023-04-28T06:41:18.987Z,65.31
2023-04-28T06:41:52.198Z,65.33
2023-04-28T06:42:26.980Z,65.32
2023-04-28T06:43:00.279Z,65.29
2023-04-28T06:43:33.726Z,65.25
2023-04-28T06:44:07.030Z,65.22
2023-04-28T06:44:40.316Z,65.14
2023-04-28T06:45:13.785Z,65.08
2023-04-28T06:45:46.884Z,64.93
2023-04-28T06:46:19.970Z,64.59
2023-04-28T06:46:53.216Z,64.62
2023-04-28T06:47:26.554Z,64.54
2023-04-28T06:47:59.664Z,64.48
2023-04-28T06:48:32.969Z,64.41
2023-04-28T06:49:06.261Z,64.21
2023-04-28T06:49:39.323Z,64.21
2023-04-28T06:50:12.816Z,63.69
2023-04-28T06:50:46.064Z,63.85
2023-04-28T06:51:19.269Z,63.99
2023-04-28T06:51:52.928Z,63.86
2023-04-28T06:52:38.556Z,63.85
2023-04-28T06:53:12.409Z,63.98
2023-04-28T06:53:45.652Z,64.01
2023-04-28T06:54:19.289Z,64.09
2023-04-28T06:54:52.735Z,63.77
2023-04-28T06:55:26.992Z,63.62
2023-04-28T06:56:00.208Z,63.87
2023-04-28T06:56:33.456Z,63.93
2023-04-28T06:57:06.845Z,63.85
2023-04-28T06:57:40.085Z,63.94
2023-04-28T06:58:13.425Z,64.00
2023-04-28T06:58:46.751Z,64.01
2023-04-28T06:59:20.013Z,63.90
2023-04-28T06:59:53.506Z,63.53
2023-04-28T07:00:26.604Z,63.44
2023-04-28T07:00:59.697Z,63.64
2023-04-28T07:01:33.080Z,63.75
2023-04-28T07:02:06.391Z,63.66
2023-04-28T07:02:39.795Z,63.61
2023-04-28T07:03:13.212Z,63.60
2023-04-28T07:03:46.878Z,63.03
2023-04-28T07:04:20.313Z,62.72
2023-04-28T07:04:53.891Z,62.95
2023-04-28T07:05:27.950Z,62.93
2023-04-28T07:06:01.253Z,63.05
2023-04-28T07:06:34.288Z,62.75
2023-04-28T07:07:10.588Z,62.90
2023-04-28T07:07:43.794Z,62.89
2023-04-28T07:08:17.841Z,62.89
2023-04-28T07:08:51.092Z,62.96
2023-04-28T07:09:24.334Z,62.88
2023-04-28T07:09:57.439Z,63.00
2023-04-28T07:10:30.780Z,63.07
2023-04-28T07:11:04.999Z,63.01
2023-04-28T07:11:38.418Z,62.90
2023-04-28T07:12:11.547Z,62.89
2023-04-28T07:12:44.900Z,62.66